createdAt,value
2023-05-04T00:00:52.026Z,24.32
2023-05-04T00:01:51.304Z,24.30
2023-05-04T00:02:51.307Z,24.33
2023-05-04T00:03:51.369Z,24.35
2023-05-04T00:04:51.242Z,24.32
2023-05-04T00:05:51.163Z,24.32
2023-05-04T00:06:51.121Z,24.32
2023-05-04T00:07:51.075Z,24.35
2023-05-04T00:08:51.023Z,24.32
2023-05-04T00:09:51.017Z,24.32
2023-05-04T00:10:51.027Z,24.32
2023-05-04T00:11:51.058Z,24.32
2023-05-04T00:12:51.145Z,24.32
2023-05-04T00:13:51.119Z,24.32
2023-05-04T00:14:51.149Z,24.30
2023-05-04T00:15:51.218Z,24.30
2023-05-04T00:16:51.179Z,24.35
2023-05-04T00:17:51.270Z,24.32
2023-05-04T00:18:51.223Z,24.28
2023-05-04T00:19:51.255Z,24.32
2023-05-04T00:20:51.266Z,24.32
2023-05-04T00:21:51.280Z,24.29
2023-05-04T00:22:51.304Z,24.30
2023-05-04T00:23:51.327Z,24.29
2023-05-04T00:24:51.344Z,24.32
2023-05-04T00:25:51.368Z,24.30
2023-05-04T00:26:51.387Z,24.29
2023-05-04T00:27:51.418Z,24.30
2023-05-04T00:28:51.444Z,24.30
2023-05-04T00:29:51.473Z,24.29
2023-05-04T00:30:51.508Z,24.30
2023-05-04T00:31:51.563Z,24.29
2023-05-04T00:32:51.595Z,24.28
2023-05-04T00:33:51.590Z,24.29
2023-05-04T00:34:51.579Z,24.30
2023-05-04T00:35:51.620Z,24.28
2023-05-04T00:36:51.627Z,24.30
2023-05-04T00:37:51.662Z,24.30
2023-05-04T00:38:51.769Z,24.28
2023-05-04T00:39:51.699Z,24.30
2023-05-04T00:40:51.716Z,24.28
2023-05-04T00:41:51.739Z,24.29
2023-05-04T00:42:51.760Z,24.28
2023-05-04T00:43:51.797Z,24.29
2023-05-04T00:44:51.823Z,24.28
2023-05-04T00:45:51.853Z,24.29
2023-05-04T00:46:51.925Z,24.29
2023-05-04T00:47:51.947Z,24.29
2023-05-04T00:48:51.946Z,24.29
2023-05-04T00:49:51.997Z,24.28
2023-05-04T00:50:52.023Z,24.29
2023-05-04T00:51:52.050Z,24.26
2023-05-04T00:52:52.087Z,24.28
2023-05-04T00:53:52.103Z,24.26
2023-05-04T00:54:52.142Z,24.28
2023-05-04T00:55:52.177Z,24.26
2023-05-04T00:56:52.211Z,24.28
2023-05-04T00:57:52.238Z,24.25
2023-05-04T00:58:52.258Z,24.25
2023-05-04T00:59:52.288Z,24.26
2023-05-04T01:00:52.302Z,24.26
2023-05-04T01:01:52.330Z,24.25
2023-05-04T01:02:52.454Z,24.26
2023-05-04T01:03:52.419Z,24.26
2023-05-04T01:04:52.407Z,24.26
2023-05-04T01:05:52.465Z,24.25
2023-05-04T01:06:52.466Z,24.23
2023-05-04T01:07:52.486Z,24.26
2023-05-04T01:08:52.511Z,24.23
2023-05-04T01:09:52.540Z,24.25
2023-05-04T01:10:52.576Z,24.25
2023-05-04T01:11:52.616Z,24.28
2023-05-04T01:12:52.697Z,24.25
2023-05-04T01:13:52.680Z,24.22
2023-05-04T01:14:52.708Z,24.25
2023-05-04T01:15:52.748Z,24.23
2023-05-04T01:16:52.806Z,24.23
2023-05-04T01:17:52.848Z,24.25
2023-05-04T01:18:52.830Z,24.25
2023-05-04T01:19:52.861Z,24.23
2023-05-04T01:20:52.882Z,24.25
2023-05-04T01:21:52.925Z,24.23
2023-05-04T01:22:52.931Z,24.25
2023-05-04T01:23:52.938Z,24.26
2023-05-04T01:24:52.965Z,24.23
2023-05-04T01:25:52.995Z,24.25
2023-05-04T01:26:53.047Z,24.25
2023-05-04T01:27:53.071Z,24.25
2023-05-04T01:28:53.087Z,24.25
2023-05-04T01:29:53.119Z,24.22
2023-05-04T01:30:53.159Z,24.23
2023-05-04T01:31:53.164Z,24.23
2023-05-04T01:32:53.195Z,24.23
2023-05-04T01:33:53.197Z,24.25
2023-05-04T01:34:53.222Z,24.23
2023-05-04T01:35:53.244Z,24.22
2023-05-04T01:36:53.280Z,24.22
2023-05-04T01:37:53.290Z,24.23
2023-05-04T01:38:53.298Z,24.23
2023-05-04T01:39:53.313Z,24.20
2023-05-04T01:40:53.335Z,24.22
2023-05-04T01:41:53.371Z,24.22
2023-05-04T01:42:53.386Z,24.20
2023-05-04T01:43:53.409Z,24.23
2023-05-04T01:44:53.412Z,24.23
2023-05-04T01:45:53.447Z,24.23
2023-05-04T01:46:53.453Z,24.23
2023-05-04T01:47:53.481Z,24.20
2023-05-04T01:48:53.515Z,24.20
2023-05-04T01:49:53.560Z,24.20
2023-05-04T01:50:53.580Z,24.25
2023-05-04T01:51:53.625Z,24.20
2023-05-04T01:52:53.618Z,24.22
2023-05-04T01:53:53.633Z,24.19
2023-05-04T01:54:53.654Z,24.20
2023-05-04T01:55:53.678Z,24.19
2023-05-04T01:56:53.656Z,24.20
2023-05-04T01:57:53.702Z,24.22
2023-05-04T01:58:53.721Z,24.22
2023-05-04T01:59:53.752Z,24.22
2023-05-04T02:00:53.781Z,24.23
2023-05-04T02:01:53.825Z,24.22
2023-05-04T02:02:53.903Z,24.22
2023-05-04T02:03:53.977Z,24.20
2023-05-04T02:04:53.908Z,24.22
2023-05-04T02:05:53.941Z,24.20
2023-05-04T02:06:53.998Z,24.19
2023-05-04T02:07:54.005Z,24.19
2023-05-04T02:08:54.019Z,24.19
2023-05-04T02:09:54.049Z,24.19
2023-05-04T02:10:54.094Z,24.19
2023-05-04T02:11:54.134Z,24.19
2023-05-04T02:12:54.158Z,24.19
2023-05-04T02:13:54.163Z,24.19
2023-05-04T02:14:54.132Z,24.19
2023-05-04T02:15:54.170Z,24.19
2023-05-04T02:16:54.186Z,24.19
2023-05-04T02:17:54.260Z,24.19
2023-05-04T02:18:54.242Z,24.19
2023-05-04T02:19:54.289Z,24.19
2023-05-04T02:20:54.299Z,24.18
2023-05-04T02:21:54.333Z,24.18
2023-05-04T02:22:54.362Z,24.20
2023-05-04T02:23:54.418Z,24.18
2023-05-04T02:24:54.435Z,24.16
2023-05-04T02:25:54.464Z,24.18
2023-05-04T02:26:54.486Z,24.15
2023-05-04T02:27:54.501Z,24.18
2023-05-04T02:28:54.517Z,24.16
2023-05-04T02:29:54.518Z,24.15
2023-05-04T02:30:54.612Z,24.16
2023-05-04T02:31:54.645Z,24.15
2023-05-04T02:32:54.654Z,24.16
2023-05-04T02:33:54.626Z,24.16
2023-05-04T02:34:54.631Z,24.18
2023-05-04T02:35:54.650Z,24.16
2023-05-04T02:36:54.683Z,24.15
2023-05-04T02:37:54.714Z,24.18
2023-05-04T02:38:54.766Z,24.16
2023-05-04T02:39:54.793Z,24.16
2023-05-04T02:40:54.831Z,24.16
2023-05-04T02:41:54.870Z,24.18
2023-05-04T02:42:54.894Z,24.16
2023-05-04T02:43:54.914Z,24.15
2023-05-04T02:44:54.958Z,24.15
2023-05-04T02:45:55.074Z,24.13
2023-05-04T02:46:54.988Z,24.12
2023-05-04T02:47:55.051Z,24.13
2023-05-04T02:48:55.055Z,24.15
2023-05-04T02:49:55.075Z,24.16
2023-05-04T02:50:55.069Z,24.16
2023-05-04T02:51:55.065Z,24.15
2023-05-04T02:52:55.083Z,24.16
2023-05-04T02:53:55.065Z,24.15
2023-05-04T02:54:55.121Z,24.15
2023-05-04T02:55:55.095Z,24.15
2023-05-04T02:56:55.108Z,24.13
2023-05-04T02:57:55.076Z,24.13
2023-05-04T02:58:55.080Z,24.13
2023-05-04T02:59:55.088Z,24.15
2023-05-04T03:00:55.164Z,24.13
2023-05-04T03:01:55.312Z,24.15
2023-05-04T03:02:55.259Z,24.15
2023-05-04T03:03:55.320Z,24.15
2023-05-04T03:04:55.332Z,24.13
2023-05-04T03:05:55.358Z,24.13
2023-05-04T03:06:55.399Z,24.13
2023-05-04T03:07:55.446Z,24.12
2023-05-04T03:08:55.480Z,24.13
2023-05-04T03:09:55.506Z,24.15
2023-05-04T03:10:55.518Z,24.13
2023-05-04T03:11:55.517Z,24.12
2023-05-04T03:12:55.582Z,24.12
2023-05-04T03:13:55.559Z,24.12
2023-05-04T03:14:55.567Z,24.11
2023-05-04T03:15:55.608Z,24.12
2023-05-04T03:16:55.661Z,24.11
2023-05-04T03:17:55.671Z,24.13
2023-05-04T03:18:55.695Z,24.12
2023-05-04T03:19:55.678Z,24.12
2023-05-04T03:20:55.689Z,24.11
2023-05-04T03:21:55.686Z,24.11
2023-05-04T03:22:55.659Z,24.12
2023-05-04T03:23:55.672Z,24.11
2023-05-04T03:24:55.653Z,24.11
2023-05-04T03:25:55.644Z,24.12
2023-05-04T03:26:55.650Z,24.12
2023-05-04T03:27:55.763Z,24.12
2023-05-04T03:28:55.768Z,24.11
2023-05-04T03:29:55.822Z,24.12
2023-05-04T03:30:55.879Z,24.11
2023-05-04T03:31:55.961Z,24.11
2023-05-04T03:32:56.037Z,24.11
2023-05-04T03:33:55.926Z,24.11
2023-05-04T03:34:55.969Z,24.12
2023-05-04T03:35:55.998Z,24.11
2023-05-04T03:36:56.062Z,24.11
2023-05-04T03:37:55.990Z,24.09
2023-05-04T03:38:55.979Z,24.12
2023-05-04T03:39:56.030Z,24.09
2023-05-04T03:40:56.021Z,24.09
2023-05-04T03:41:56.091Z,24.11
2023-05-04T03:42:56.135Z,24.07
2023-05-04T03:43:56.188Z,24.09
2023-05-04T03:44:56.250Z,24.08
2023-05-04T03:45:56.319Z,24.09
2023-05-04T03:46:56.265Z,24.08
2023-05-04T03:47:56.310Z,24.09
2023-05-04T03:48:56.272Z,24.08
2023-05-04T03:49:56.295Z,24.08
2023-05-04T03:50:56.299Z,24.09
2023-05-04T03:51:56.341Z,24.08
2023-05-04T03:52:56.333Z,24.11
2023-05-04T03:53:56.323Z,24.08
2023-05-04T03:54:56.403Z,24.08
2023-05-04T03:55:56.463Z,24.09
2023-05-04T03:56:56.518Z,24.09
2023-05-04T03:57:56.582Z,24.11
2023-05-04T03:58:56.613Z,24.09
2023-05-04T03:59:57.954Z,24.08
2023-05-04T04:00:56.698Z,24.09
2023-05-04T04:01:56.696Z,24.08
2023-05-04T04:02:56.801Z,24.09
2023-05-04T04:03:56.837Z,24.08
2023-05-04T04:04:56.730Z,24.08
2023-05-04T04:05:56.696Z,24.09
2023-05-04T04:06:56.660Z,24.08
2023-05-04T04:07:56.695Z,24.09
2023-05-04T04:08:56.732Z,24.09
2023-05-04T04:09:56.815Z,24.08
2023-05-04T04:10:56.786Z,24.11
2023-05-04T04:11:56.751Z,24.09
2023-05-04T04:12:56.764Z,24.09
2023-05-04T04:13:56.714Z,24.09
2023-05-04T04:14:56.751Z,24.11
2023-05-04T04:15:56.731Z,24.09
2023-05-04T04:16:56.728Z,24.08
2023-05-04T04:17:56.758Z,24.11
2023-05-04T04:18:56.671Z,24.09
2023-05-04T04:19:56.659Z,24.09
2023-05-04T04:20:56.657Z,24.11
2023-05-04T04:21:56.641Z,24.09
2023-05-04T04:22:56.633Z,24.09
2023-05-04T04:23:56.687Z,24.12
2023-05-04T04:24:56.745Z,24.11
2023-05-04T04:25:56.750Z,24.11
2023-05-04T04:26:56.737Z,24.11
2023-05-04T04:27:56.737Z,24.09
2023-05-04T04:28:56.691Z,24.11
2023-05-04T04:29:56.668Z,24.09
2023-05-04T04:30:56.651Z,24.09
2023-05-04T04:31:56.648Z,24.11
2023-05-04T04:32:56.621Z,24.09
2023-05-04T04:33:56.533Z,24.11
2023-05-04T04:34:56.517Z,24.11
2023-05-04T04:35:56.526Z,24.12
2023-05-04T04:36:56.580Z,24.09
2023-05-04T04:37:56.652Z,24.11
2023-05-04T04:38:56.700Z,24.11
2023-05-04T04:39:56.749Z,24.11
2023-05-04T04:40:56.816Z,24.12
2023-05-04T04:41:56.787Z,24.11
2023-05-04T04:42:56.793Z,24.11
2023-05-04T04:43:56.774Z,24.11
2023-05-04T04:44:56.767Z,24.11
2023-05-04T04:45:56.759Z,24.12
2023-05-04T04:46:56.873Z,24.13
2023-05-04T04:47:56.822Z,24.13
2023-05-04T04:48:56.794Z,24.12
2023-05-04T04:49:56.849Z,24.13
2023-05-04T04:50:56.898Z,24.13
2023-05-04T04:51:56.974Z,24.13
2023-05-04T04:52:57.018Z,24.12
2023-05-04T04:53:57.069Z,24.15
2023-05-04T04:54:57.137Z,24.13
2023-05-04T04:55:57.174Z,24.15
2023-05-04T04:56:57.229Z,24.13
2023-05-04T04:57:57.288Z,24.13
2023-05-04T04:58:57.256Z,24.15
2023-05-04T04:59:57.230Z,24.13
2023-05-04T05:00:57.235Z,24.13
2023-05-04T05:01:57.192Z,24.15
2023-05-04T05:02:57.259Z,24.12
2023-05-04T05:03:57.153Z,24.15
2023-05-04T05:04:57.219Z,24.13
2023-05-04T05:05:57.154Z,24.16
2023-05-04T05:06:57.163Z,24.15
2023-05-04T05:07:57.168Z,24.15
2023-05-04T05:08:57.183Z,24.18
2023-05-04T05:09:57.206Z,24.16
2023-05-04T05:10:57.183Z,24.16
2023-05-04T05:11:57.143Z,24.18
2023-05-04T05:12:57.163Z,24.16
2023-05-04T05:13:57.180Z,24.16
2023-05-04T05:14:57.178Z,24.18
2023-05-04T05:15:57.154Z,24.16
2023-05-04T05:16:57.155Z,24.16
2023-05-04T05:17:57.140Z,24.19
2023-05-04T05:18:57.119Z,24.18
2023-05-04T05:19:57.134Z,24.22
2023-05-04T05:20:57.149Z,24.16
2023-05-04T05:21:57.141Z,24.13
2023-05-04T05:22:57.133Z,24.07
2023-05-04T05:23:57.126Z,24.01
2023-05-04T05:24:57.139Z,23.95
2023-05-04T05:25:57.169Z,23.87
2023-05-04T05:26:57.201Z,23.80
2023-05-04T05:27:57.308Z,23.75
2023-05-04T05:28:57.293Z,23.75
2023-05-04T05:29:57.313Z,23.85
2023-05-04T05:30:57.336Z,23.91
2023-05-04T05:31:57.312Z,23.84
2023-05-04T05:32:57.357Z,23.91
2023-05-04T05:33:57.310Z,23.97
2023-05-04T05:34:57.380Z,23.97
2023-05-04T05:35:57.284Z,24.01
2023-05-04T05:36:57.259Z,24.01
2023-05-04T05:37:57.248Z,24.04
2023-05-04T05:38:57.234Z,24.04
2023-05-04T05:39:57.185Z,24.07
2023-05-04T05:40:57.176Z,24.09
2023-05-04T05:41:57.240Z,24.09
2023-05-04T05:42:57.302Z,24.12
2023-05-04T05:43:57.355Z,24.11
2023-05-04T05:44:57.411Z,24.16
2023-05-04T05:45:57.509Z,24.16
2023-05-04T05:46:57.540Z,24.18
2023-05-04T05:47:57.689Z,24.18
2023-05-04T05:48:57.578Z,24.20
2023-05-04T05:49:57.539Z,24.23
2023-05-04T05:50:57.496Z,24.26
2023-05-04T05:51:57.493Z,24.29
2023-05-04T05:52:57.456Z,24.29
2023-05-04T05:53:57.450Z,24.32
2023-05-04T05:54:57.497Z,24.35
2023-05-04T05:55:57.506Z,24.36
2023-05-04T05:56:57.520Z,24.39
2023-05-04T05:57:57.542Z,24.43
2023-05-04T05:58:57.569Z,24.43
2023-05-04T05:59:57.632Z,24.42
2023-05-04T06:00:57.621Z,24.43
2023-05-04T06:01:57.689Z,24.46
2023-05-04T06:02:57.748Z,24.47
2023-05-04T06:03:57.810Z,24.50
2023-05-04T06:04:57.818Z,24.50
2023-05-04T06:05:57.742Z,24.49
2023-05-04T06:06:57.775Z,24.52
2023-05-04T06:07:57.788Z,24.55
2023-05-04T06:08:57.809Z,24.56
2023-05-04T06:09:57.833Z,24.55
2023-05-04T06:10:57.845Z,24.55
2023-05-04T06:11:57.867Z,24.57
2023-05-04T06:12:57.931Z,24.57
2023-05-04T06:13:57.893Z,24.60
2023-05-04T06:14:57.938Z,24.62
2023-05-04T06:15:58.015Z,24.62
2023-05-04T06:16:57.905Z,24.66
2023-05-04T06:17:57.981Z,24.67
2023-05-04T06:18:57.924Z,24.67
2023-05-04T06:19:57.916Z,24.68
2023-05-04T06:20:57.915Z,24.73
2023-05-04T06:21:57.914Z,24.66
2023-05-04T06:22:57.919Z,24.75
2023-05-04T06:23:57.919Z,24.75
2023-05-04T06:25:02.888Z,24.81
2023-05-04T06:25:58.858Z,24.84
2023-05-04T06:26:57.792Z,24.84
2023-05-04T06:27:57.746Z,24.88
2023-05-04T06:28:57.710Z,24.97
2023-05-04T06:29:57.682Z,24.98
2023-05-04T06:30:57.584Z,25.02
2023-05-04T06:31:57.587Z,25.07
2023-05-04T06:32:57.560Z,25.07
2023-05-04T06:33:57.454Z,25.15
2023-05-04T06:34:57.418Z,25.15
2023-05-04T06:35:57.345Z,25.15
2023-05-04T06:36:57.281Z,25.17
2023-05-04T06:37:57.226Z,25.21
2023-05-04T06:38:57.170Z,25.23
2023-05-04T06:39:57.128Z,25.23
2023-05-04T06:40:57.064Z,25.25
2023-05-04T06:41:57.049Z,25.31
2023-05-04T06:42:56.939Z,25.29
2023-05-04T06:43:58.832Z,25.32
2023-05-04T06:44:56.833Z,25.32
2023-05-04T06:45:56.856Z,25.35
2023-05-04T06:46:56.829Z,25.35
2023-05-04T06:47:56.868Z,25.38
2023-05-04T06:48:56.856Z,25.38
2023-05-04T06:49:56.866Z,25.36
2023-05-04T06:50:56.894Z,25.39
2023-05-04T06:51:56.928Z,25.41
2023-05-04T06:52:56.937Z,25.42
2023-05-04T06:53:56.992Z,25.42
2023-05-04T06:54:56.941Z,25.43
2023-05-04T06:55:56.976Z,25.42
2023-05-04T06:56:56.977Z,25.43
2023-05-04T06:57:56.999Z,25.46
2023-05-04T06:58:56.998Z,25.46
2023-05-04T06:59:57.011Z,25.48
2023-05-04T07:00:57.024Z,25.46
2023-05-04T07:01:57.014Z,25.48
2023-05-04T07:02:57.058Z,25.49
2023-05-04T07:03:57.051Z,25.49
2023-05-04T07:04:57.037Z,25.50
2023-05-04T07:05:57.048Z,25.52
2023-05-04T07:06:57.036Z,25.50
2023-05-04T07:07:57.032Z,25.52
2023-05-04T07:08:57.044Z,25.53
2023-05-04T07:09:57.048Z,25.53
2023-05-04T07:10:57.034Z,25.52
2023-05-04T07:11:57.020Z,25.54
2023-05-04T07:12:57.114Z,25.54
2023-05-04T07:13:57.014Z,25.58
2023-05-04T07:14:57.013Z,25.56
2023-05-04T07:15:57.038Z,25.58
2023-05-04T07:16:56.987Z,25.59
2023-05-04T07:17:57.075Z,25.59
2023-05-04T07:18:56.988Z,25.56
2023-05-04T07:19:57.010Z,25.52
2023-05-04T07:21:10.759Z,25.53
2023-05-04T07:21:57.937Z,25.49
2023-05-04T07:22:56.923Z,25.49
2023-05-04T07:23:56.884Z,25.43
2023-05-04T07:24:56.822Z,25.43
2023-05-04T07:25:56.704Z,25.42
2023-05-04T07:26:56.663Z,25.41
2023-05-04T07:27:56.585Z,25.39
2023-05-04T07:28:56.539Z,25.35
2023-05-04T07:29:56.487Z,25.36
2023-05-04T07:30:56.406Z,25.32
2023-05-04T07:31:56.378Z,25.29
2023-05-04T07:32:56.324Z,25.28
2023-05-04T07:33:56.272Z,25.23
2023-05-04T07:34:56.188Z,25.23
2023-05-04T07:35:56.158Z,25.26
2023-05-04T07:36:56.144Z,25.21
2023-05-04T07:37:56.121Z,25.17
2023-05-04T07:38:56.107Z,25.18
2023-05-04T07:39:56.340Z,25.18
2023-05-04T07:40:56.068Z,25.17
2023-05-04T07:41:56.041Z,25.15
2023-05-04T07:42:56.010Z,25.12
2023-05-04T07:43:55.984Z,25.12
2023-05-04T07:44:55.977Z,25.12
2023-05-04T07:45:55.971Z,25.10
2023-05-04T07:46:55.895Z,25.10
2023-05-04T07:47:55.895Z,25.08
2023-05-04T07:48:55.858Z,25.04
2023-05-04T07:49:55.813Z,25.05
2023-05-04T07:50:55.771Z,24.99
2023-05-04T07:51:55.738Z,25.02
2023-05-04T07:52:55.696Z,25.01
2023-05-04T07:53:55.696Z,25.01
2023-05-04T07:54:55.653Z,25.01
2023-05-04T07:55:56.097Z,24.98
2023-05-04T07:56:55.575Z,24.98
2023-05-04T07:57:55.499Z,24.98
2023-05-04T07:58:56.093Z,24.97
2023-05-04T07:59:55.419Z,24.97
2023-05-04T08:00:55.376Z,24.94
2023-05-04T08:01:55.366Z,24.91
2023-05-04T08:02:55.312Z,24.94
2023-05-04T08:03:55.253Z,24.94
2023-05-04T08:04:55.237Z,24.94
2023-05-04T08:05:55.238Z,24.91
2023-05-04T08:06:55.208Z,24.90
2023-05-04T08:07:55.121Z,24.88
2023-05-04T08:08:55.109Z,24.88
2023-05-04T08:09:55.062Z,24.88
2023-05-04T08:10:57.717Z,24.87
2023-05-04T08:11:55.990Z,24.88
2023-05-04T08:12:54.960Z,24.87
2023-05-04T08:13:54.877Z,24.88
2023-05-04T08:14:54.979Z,24.90
2023-05-04T08:15:54.767Z,24.87
2023-05-04T08:16:54.733Z,24.88
2023-05-04T08:17:54.713Z,24.93
2023-05-04T08:18:54.624Z,24.94
2023-05-04T08:19:54.850Z,24.97
2023-05-04T08:20:54.665Z,24.98
2023-05-04T08:21:54.484Z,24.97
2023-05-04T08:22:54.429Z,24.97
2023-05-04T08:23:54.399Z,24.95
2023-05-04T08:24:54.354Z,24.87
2023-05-04T08:25:54.298Z,24.88
2023-05-04T08:27:06.540Z,24.88
2023-05-04T08:27:55.256Z,24.87
2023-05-04T08:28:54.165Z,24.84
2023-05-04T08:29:54.137Z,24.87
2023-05-04T08:30:54.077Z,24.84
2023-05-04T08:31:54.118Z,24.84
2023-05-04T08:33:53.948Z,24.81
2023-05-04T08:34:53.886Z,24.81
2023-05-04T08:35:53.846Z,24.83
2023-05-04T08:36:53.795Z,24.81
2023-05-04T08:37:53.755Z,24.81
2023-05-04T08:38:53.695Z,24.80
2023-05-04T08:39:53.662Z,24.81
2023-05-04T08:40:53.613Z,24.81
2023-05-04T08:41:53.557Z,24.81
2023-05-04T08:42:53.530Z,24.83
2023-05-04T08:43:53.475Z,24.80
2023-05-04T08:44:53.417Z,24.80
2023-05-04T08:45:53.386Z,24.78
2023-05-04T08:46:53.553Z,24.81
2023-05-04T08:47:53.348Z,24.78
2023-05-04T08:48:53.227Z,24.80
2023-05-04T08:49:53.210Z,24.78
2023-05-04T08:50:53.187Z,24.80
2023-05-04T08:51:53.157Z,24.80
2023-05-04T08:52:53.140Z,24.81
2023-05-04T08:53:53.125Z,24.78
2023-05-04T08:54:53.113Z,24.77
2023-05-04T08:55:53.098Z,24.78
2023-05-04T08:56:53.080Z,24.77
2023-05-04T08:57:53.051Z,24.77
2023-05-04T08:58:53.015Z,24.77
2023-05-04T08:59:53.002Z,24.77
2023-05-04T09:00:53.110Z,24.75
2023-05-04T09:01:53.006Z,24.80
2023-05-04T09:02:52.981Z,24.75
2023-05-04T09:03:53.120Z,24.77
2023-05-04T09:04:52.926Z,24.75
2023-05-04T09:05:52.868Z,24.75
2023-05-04T09:06:52.852Z,24.77
2023-05-04T09:07:52.847Z,24.74
2023-05-04T09:08:52.808Z,24.74
2023-05-04T09:09:52.800Z,24.77
2023-05-04T09:10:52.774Z,24.80
2023-05-04T09:11:52.775Z,24.74
2023-05-04T09:12:52.808Z,24.75
2023-05-04T09:13:52.762Z,24.74
2023-05-04T09:14:52.853Z,24.73
2023-05-04T09:15:52.710Z,24.74
2023-05-04T09:16:52.745Z,24.75
2023-05-04T09:17:57.749Z,24.74
2023-05-04T09:18:53.663Z,24.74
2023-05-04T09:19:52.597Z,24.73
2023-05-04T09:20:52.613Z,24.74
2023-05-04T09:21:52.512Z,24.74
2023-05-04T09:22:52.538Z,24.74
2023-05-04T09:23:52.611Z,24.75
2023-05-04T09:24:52.395Z,24.74
2023-05-04T09:25:52.338Z,24.75
2023-05-04T09:26:52.298Z,24.74
2023-05-04T09:27:52.244Z,24.74
2023-05-04T09:28:52.208Z,24.74
2023-05-04T09:29:52.155Z,24.74
2023-05-04T09:30:52.133Z,24.73
2023-05-04T09:31:52.091Z,24.71
2023-05-04T09:32:52.063Z,24.74
2023-05-04T09:33:53.372Z,24.74
2023-05-04T09:34:51.952Z,24.71
2023-05-04T09:35:51.944Z,24.73
2023-05-04T09:36:51.933Z,24.74
2023-05-04T09:37:51.932Z,24.73
2023-05-04T09:38:51.900Z,24.74
2023-05-04T09:39:52.957Z,24.75
2023-05-04T09:40:51.868Z,24.74
2023-05-04T09:41:51.849Z,24.75
2023-05-04T09:42:51.850Z,24.74
2023-05-04T09:43:51.826Z,24.73
2023-05-04T09:44:51.818Z,24.74
2023-05-04T09:45:51.895Z,24.74
2023-05-04T09:46:51.818Z,24.73
2023-05-04T09:47:51.801Z,24.73
2023-05-04T09:48:51.774Z,24.75
2023-05-04T09:49:51.734Z,24.74
2023-05-04T09:50:51.726Z,24.73
2023-05-04T09:51:51.695Z,24.74
2023-05-04T09:52:51.694Z,24.74
2023-05-04T09:53:51.688Z,24.75
2023-05-04T09:54:51.659Z,24.74
2023-05-04T09:55:51.652Z,24.73
2023-05-04T09:56:51.625Z,24.71
2023-05-04T09:57:51.633Z,24.74
2023-05-04T09:58:51.613Z,24.73
2023-05-04T09:59:51.583Z,24.71
2023-05-04T10:00:51.581Z,24.74
2023-05-04T10:01:51.604Z,24.74
2023-05-04T10:02:51.609Z,24.70
2023-05-04T10:03:51.553Z,24.74
2023-05-04T10:04:51.606Z,24.74
2023-05-04T10:05:51.684Z,24.73
2023-05-04T10:06:51.549Z,24.75
2023-05-04T10:07:51.580Z,24.74
2023-05-04T10:08:51.561Z,24.63
2023-05-04T10:09:51.595Z,24.66
2023-05-04T10:10:51.591Z,24.66
2023-05-04T10:11:51.614Z,24.62
2023-05-04T10:12:51.702Z,24.59
2023-05-04T10:13:51.692Z,24.62
2023-05-04T10:14:51.720Z,24.64
2023-05-04T10:15:51.752Z,24.59
2023-05-04T10:16:51.752Z,24.63
2023-05-04T10:17:51.805Z,24.63
2023-05-04T10:18:51.812Z,24.68
2023-05-04T10:19:51.819Z,24.74
2023-05-04T10:20:51.799Z,24.81
2023-05-04T10:21:51.766Z,24.87
2023-05-04T10:22:51.724Z,24.93
2023-05-04T10:23:51.702Z,24.95
2023-05-04T10:24:51.687Z,24.99
2023-05-04T10:25:51.651Z,25.02
2023-05-04T10:26:51.618Z,25.12
2023-05-04T10:27:51.595Z,25.12
2023-05-04T10:28:51.560Z,25.15
2023-05-04T10:29:51.556Z,25.18
2023-05-04T10:30:51.552Z,25.21
2023-05-04T10:31:51.609Z,25.25
2023-05-04T10:32:51.610Z,25.28
2023-05-04T10:33:51.574Z,25.29
2023-05-04T10:34:51.588Z,25.32
2023-05-04T10:35:51.583Z,25.35
2023-05-04T10:36:51.599Z,25.39
2023-05-04T10:37:51.611Z,25.39
2023-05-04T10:38:51.626Z,25.42
2023-05-04T10:39:51.613Z,25.42
2023-05-04T10:40:51.603Z,25.41
2023-05-04T10:41:51.585Z,25.39
2023-05-04T10:42:51.570Z,25.41
2023-05-04T10:43:51.562Z,25.42
2023-05-04T10:44:51.519Z,25.41
2023-05-04T10:45:51.507Z,25.43
2023-05-04T10:46:51.459Z,25.43
2023-05-04T10:47:51.458Z,25.50
2023-05-04T10:48:51.388Z,25.49
2023-05-04T10:49:51.351Z,25.50
2023-05-04T10:50:51.391Z,25.50
2023-05-04T10:51:51.270Z,25.50
2023-05-04T10:52:51.226Z,25.50
2023-05-04T10:53:51.182Z,25.50
2023-05-04T10:54:51.131Z,25.50
2023-05-04T10:55:51.077Z,25.52
2023-05-04T10:56:51.022Z,25.52
2023-05-04T10:57:50.972Z,25.52
2023-05-04T10:58:50.942Z,25.50
2023-05-04T10:59:50.896Z,25.52
2023-05-04T11:00:50.876Z,25.49
2023-05-04T11:01:50.788Z,25.50
2023-05-04T11:02:50.812Z,25.53
2023-05-04T11:03:50.702Z,25.58
2023-05-04T11:04:50.596Z,25.56
2023-05-04T11:05:50.533Z,25.56
2023-05-04T11:06:50.485Z,25.59
2023-05-04T11:07:50.458Z,25.65
2023-05-04T11:08:50.424Z,25.66
2023-05-04T11:09:50.356Z,25.72
2023-05-04T11:10:50.403Z,25.73
2023-05-04T11:11:50.256Z,25.72
2023-05-04T11:12:50.447Z,25.73
2023-05-04T11:13:50.227Z,25.75
2023-05-04T11:14:50.175Z,25.72
2023-05-04T11:15:50.162Z,25.72
2023-05-04T11:16:50.262Z,25.70
2023-05-04T11:17:50.173Z,25.69
2023-05-04T11:18:50.129Z,25.68
2023-05-04T11:19:50.114Z,25.65
2023-05-04T11:20:50.113Z,25.65
2023-05-04T11:21:50.117Z,25.65
2023-05-04T11:22:50.120Z,25.60
2023-05-04T11:23:50.144Z,25.60
2023-05-04T11:24:50.197Z,25.58
2023-05-04T11:25:50.202Z,25.56
2023-05-04T11:26:50.177Z,25.53
2023-05-04T11:27:50.194Z,25.52
2023-05-04T11:28:50.210Z,25.49
2023-05-04T11:29:50.244Z,25.50
2023-05-04T11:30:50.205Z,25.48
2023-05-04T11:31:50.252Z,25.49
2023-05-04T11:32:50.284Z,25.46
2023-05-04T11:33:50.202Z,25.45
2023-05-04T11:34:50.205Z,25.43
2023-05-04T11:35:50.238Z,25.43
2023-05-04T11:36:50.235Z,25.42
2023-05-04T11:37:50.234Z,25.42
2023-05-04T11:38:50.258Z,25.39
2023-05-04T11:39:50.197Z,25.41
2023-05-04T11:40:50.203Z,25.38
2023-05-04T11:41:50.201Z,25.38
2023-05-04T11:42:50.202Z,25.35
2023-05-04T11:43:50.160Z,25.35
2023-05-04T11:44:50.126Z,25.36
2023-05-04T11:45:50.099Z,25.32
2023-05-04T11:46:50.110Z,25.32
2023-05-04T11:47:50.119Z,25.32
2023-05-04T11:48:50.026Z,25.32
2023-05-04T11:49:50.004Z,25.31
2023-05-04T11:50:49.957Z,25.33
2023-05-04T11:51:49.963Z,25.29
2023-05-04T11:52:49.947Z,25.31
2023-05-04T11:53:49.921Z,25.29
2023-05-04T11:54:49.927Z,25.29
2023-05-04T11:55:49.908Z,25.28
2023-05-04T11:56:49.881Z,25.26
2023-05-04T11:57:49.880Z,25.26
2023-05-04T11:58:49.882Z,25.25
2023-05-04T11:59:49.866Z,25.25
2023-05-04T12:00:49.844Z,25.26
2023-05-04T12:01:49.827Z,25.28
2023-05-04T12:02:49.916Z,25.26
2023-05-04T12:03:53.730Z,25.25
2023-05-04T12:04:49.733Z,25.25
2023-05-04T12:05:49.731Z,25.25
2023-05-04T12:06:49.634Z,25.23
2023-05-04T12:07:49.587Z,25.25
2023-05-04T12:08:49.531Z,25.26
2023-05-04T12:09:49.489Z,25.25
2023-05-04T12:10:49.419Z,25.25
2023-05-04T12:11:49.376Z,25.23
2023-05-04T12:12:49.412Z,25.21
2023-05-04T12:13:49.296Z,25.23
2023-05-04T12:14:49.231Z,25.23
2023-05-04T12:15:49.154Z,25.23
2023-05-04T12:16:49.170Z,25.22
2023-05-04T12:17:49.064Z,25.22
2023-05-04T12:18:49.013Z,25.19
2023-05-04T12:19:48.965Z,25.22
2023-05-04T12:20:48.907Z,25.22
2023-05-04T12:21:48.869Z,25.19
2023-05-04T12:22:48.795Z,25.21
2023-05-04T12:23:48.814Z,25.22
2023-05-04T12:24:48.766Z,25.21
2023-05-04T12:25:57.738Z,25.21
2023-05-04T12:26:49.703Z,25.22
2023-05-04T12:27:48.641Z,25.19
2023-05-04T12:28:48.589Z,25.21
2023-05-04T12:29:48.535Z,25.18
2023-05-04T12:30:48.478Z,25.18
2023-05-04T12:31:48.497Z,25.21
2023-05-04T12:32:48.384Z,25.21
2023-05-04T12:33:48.297Z,25.18
2023-05-04T12:34:48.254Z,25.18
2023-05-04T12:35:48.189Z,25.19
2023-05-04T12:36:48.124Z,25.19
2023-05-04T12:37:48.079Z,25.17
2023-05-04T12:38:48.028Z,25.19
2023-05-04T12:39:47.981Z,25.19
2023-05-04T12:40:47.939Z,25.21
2023-05-04T12:41:47.935Z,25.19
2023-05-04T12:42:47.919Z,25.21
2023-05-04T12:43:47.897Z,25.18
2023-05-04T12:44:47.898Z,25.19
2023-05-04T12:45:47.941Z,25.19
2023-05-04T12:46:47.891Z,25.18
2023-05-04T12:47:47.893Z,25.18
2023-05-04T12:48:47.835Z,25.17
2023-05-04T12:49:47.817Z,25.18
2023-05-04T12:50:47.798Z,25.18
2023-05-04T12:51:47.796Z,25.19
2023-05-04T12:52:47.790Z,25.19
2023-05-04T12:53:47.764Z,25.19